Aérodrome :
LOGIN :

S'inscrire | Disclaimer

   EN    FR    IT 

 










Légende :    VFR   VFR Marginal   IFR   IFR Intensif   IFR Très Intensif
Visi : 
Plafond : 
>= 8 km
>= 3000ft
5 à 8 km
1000 à 3000 ft
1500m à 5 km
500 à 1000 ft
800 à 1500m
200 à 500 ft
< 800m
< 200 ft
Symboles :   Orages  Brouillard  Fortes neiges  Fortes précipitations  Vent > 20 kt
SIGMETs :   Divers  Orages  Givrage  Turbulence  Onde Orograph.  Cendres Volcan.






- Altitude de l'aérodrome : 423 ft
- Code IATA : PIS


LFBI - Poitiers

DERNIER METAR :
  • 131030Z AUTO 14004KT 080V220 9999 FEW019 SCT026 BKN230 18/13 Q1016 NOSIG

METARs EXPIRÉS :
  • 131000Z AUTO VRB03KT 9999 SCT016 BKN025 17/12 Q1016 NOSIG
  • 130930Z AUTO 20004KT 160V220 9999 OVC013 15/12 Q1016 BECMG BKN025
  • 130900Z AUTO 27003KT 170V310 9999 OVC011 15/12 Q1016 BECMG BKN025
  • 130830Z AUTO 33003KT 260V030 9999 OVC009 14/12 Q1016 BECMG BKN025
  • 130800Z AUTO 29003KT 250V340 9999 OVC006 14/12 Q1016 BECMG BKN025
  • 130730Z AUTO 23005KT 200V260 9999 OVC004 13/12 Q1016 BECMG BKN025
  • 130700Z AUTO 28005KT 250V310 9999 OVC003 13/12 Q1016 BECMG BKN025
  • 130630Z AUTO 24004KT 8000 OVC003 13/12 Q1016 BECMG BKN025
  • 130600Z AUTO 22005KT 7000 OVC003 13/12 Q1016 BECMG BKN025

TAF TAF LFBI
Valide du 13 à 06h jusqu'au 14 à 06h UTC


130500Z 1306/1406 VRB04KT 3000 BR BKN004
BECMG 1306/1309 9999 NSW BKN025



MET'MAP, la Météo Aéronautique d'un coup d'oeil ! - Copyright ORBIFLY Décembre 2007 - Disclaimer

ORBIFLY MET'MAP TEAM :

Programmation & Développement : Alexandra Zaïnal
Sur une idée originale de : Baudouin d'Aumeries
Soutien technique & logistique : Manuel Goepfert
Assistance : Marc-Olivier Méhu




SOURCES & CREDITS :

   NOAA